Time;durP1;ratioP1;P1;durP2;ratioP2;P2;SDS_P1;SDS_P2;PMS_P1;PMS_P2;Temp;Humidity;BMP_temperature;BMP_pressure;BME280_temperature;BME280_humidity;BME280_pressure;Samples;Min_cycle;Max_cycle;Signal;HPM_P1;HPM_P2
2023/06/07 00:01:58;;;;;;;2.00;0.90;;;;;;;19.82;64.45;101309.41;5014079;28;20026;-66
2023/06/07 00:04:24;;;;;;;0.93;0.65;;;;;;;19.77;64.54;101301.63;5013697;28;20022;-67
2023/06/07 00:07:10;;;;;;;2.47;0.73;;;;;;;19.73;64.08;101301.66;5023557;28;20025;-66
2023/06/07 00:09:36;;;;;;;2.03;1.02;;;;;;;19.75;64.74;101298.50;4966993;28;20086;-67
2023/06/07 00:12:01;;;;;;;1.15;0.68;;;;;;;19.73;64.84;101304.38;4966151;28;20055;-66
2023/06/07 00:14:26;;;;;;;1.85;0.75;;;;;;;19.75;64.43;101307.50;4968209;28;20583;-66
2023/06/07 00:16:53;;;;;;;1.85;0.88;;;;;;;19.75;64.31;101310.22;4962336;28;20039;-66
2023/06/07 00:19:21;;;;;;;1.88;0.80;;;;;;;19.77;64.65;101312.56;4966271;28;20582;-67
2023/06/07 00:21:50;;;;;;;1.83;1.10;;;;;;;19.71;64.79;101311.41;4963976;28;20077;-66
2023/06/07 00:24:16;;;;;;;2.53;0.80;;;;;;;19.62;65.45;101302.91;4954801;28;20047;-66
2023/06/07 00:26:42;;;;;;;2.15;1.13;;;;;;;19.62;65.31;101297.44;4954475;28;20177;-67
2023/06/07 00:29:07;;;;;;;1.52;0.75;;;;;;;19.44;65.58;101308.47;4942541;28;20034;-66
2023/06/07 00:31:35;;;;;;;3.50;0.80;;;;;;;19.35;66.40;101304.63;4960051;28;20117;-66
2023/06/07 00:34:01;;;;;;;1.17;0.60;;;;;;;19.32;66.72;101305.34;4964750;28;20173;-67
2023/06/07 00:36:28;;;;;;;0.80;0.80;;;;;;;19.29;66.98;101306.94;4961648;28;20034;-66
2023/06/07 00:38:54;;;;;;;2.08;0.90;;;;;;;19.40;66.50;101301.44;4964196;28;20030;-66
2023/06/07 00:41:20;;;;;;;1.10;1.00;;;;;;;19.38;66.25;101309.28;4966590;28;20055;-66
2023/06/07 00:43:47;;;;;;;3.42;1.58;;;;;;;19.33;66.23;101299.56;4955657;28;20468;-66
2023/06/07 00:46:14;;;;;;;2.03;0.95;;;;;;;19.27;66.70;101306.56;4976169;28;20092;-67
2023/06/07 00:48:40;;;;;;;1.63;0.73;;;;;;;19.18;67.01;101306.19;5012785;28;20040;-67
2023/06/07 00:51:06;;;;;;;1.98;0.80;;;;;;;19.14;67.29;101302.75;5030248;28;20026;-67
2023/06/07 00:53:32;;;;;;;2.33;0.90;;;;;;;19.14;66.87;101301.94;5023040;28;20120;-67
2023/06/07 00:56:00;;;;;;;3.13;1.77;;;;;;;19.11;67.10;101300.00;5019586;28;20032;-67
2023/06/07 00:58:26;;;;;;;4.05;0.70;;;;;;;19.08;67.04;101306.25;5024869;28;20061;-68
2023/06/07 01:00:52;;;;;;;2.20;0.63;;;;;;;19.06;67.41;101293.00;5028952;28;20061;-67
2023/06/07 01:03:18;;;;;;;1.95;0.90;;;;;;;19.02;66.92;101297.72;5019456;28;20026;-68
2023/06/07 01:05:47;;;;;;;0.70;0.60;;;;;;;18.95;67.26;101303.16;5020384;28;20029;-68
2023/06/07 01:08:13;;;;;;;2.80;0.95;;;;;;;18.85;67.87;101293.84;5028710;28;20033;-68
2023/06/07 01:10:39;;;;;;;1.10;0.77;;;;;;;18.81;67.59;101298.53;5025976;28;20397;-67
2023/06/07 01:13:09;;;;;;;3.60;0.98;;;;;;;18.75;67.82;101302.09;5025906;28;20555;-68
2023/06/07 01:15:35;;;;;;;2.33;0.68;;;;;;;18.67;68.69;101297.81;5023824;28;20486;-68
2023/06/07 01:18:09;;;;;;;1.02;0.77;;;;;;;18.59;68.79;101297.03;5020465;28;20028;-67
2023/06/07 01:20:37;;;;;;;2.60;0.98;;;;;;;18.67;68.05;101295.09;5022913;28;20034;-66
2023/06/07 01:23:07;;;;;;;1.38;0.80;;;;;;;18.63;67.74;101297.03;5020254;28;20025;-67
2023/06/07 01:25:33;;;;;;;1.38;0.82;;;;;;;18.60;68.54;101298.59;5021118;28;20026;-68
2023/06/07 01:28:03;;;;;;;0.73;0.65;;;;;;;18.41;68.94;101296.25;5021229;28;20034;-68
2023/06/07 01:30:32;;;;;;;2.67;1.13;;;;;;;18.31;69.36;101296.28;5018966;28;20061;-68
2023/06/07 01:33:00;;;;;;;0.55;0.55;;;;;;;18.29;69.31;101298.63;5024852;28;20026;-67
2023/06/07 01:35:28;;;;;;;1.90;1.02;;;;;;;18.19;69.25;101293.94;5019578;28;20037;-68
2023/06/07 01:37:55;;;;;;;1.13;0.85;;;;;;;18.17;69.83;101293.56;5017798;28;20063;-68
2023/06/07 01:40:23;;;;;;;0.88;0.88;;;;;;;18.18;69.75;101295.88;5019490;28;20030;-66
2023/06/07 01:42:49;;;;;;;1.80;1.00;;;;;;;18.18;69.90;101290.44;5026441;28;20026;-67
2023/06/07 01:45:15;;;;;;;3.22;1.25;;;;;;;18.13;70.01;101301.75;5022219;28;20026;-68
2023/06/07 01:47:40;;;;;;;4.88;1.00;;;;;;;18.08;70.08;101298.63;5020458;28;20570;-68
2023/06/07 01:50:09;;;;;;;0.95;0.70;;;;;;;18.00;70.53;101292.41;5025744;28;20605;-67
2023/06/07 01:52:34;;;;;;;1.80;1.25;;;;;;;18.07;70.75;101305.25;5018443;28;20084;-68
2023/06/07 01:55:01;;;;;;;1.52;0.63;;;;;;;17.92;71.01;101288.88;5022788;28;20029;-67
2023/06/07 01:57:59;;;;;;;1.30;0.90;;;;;;;17.83;71.27;101287.69;5024214;28;20108;-68
2023/06/07 02:00:32;;;;;;;0.73;0.73;;;;;;;17.69;71.93;101276.81;4997636;28;20137;-68
2023/06/07 02:03:19;;;;;;;1.13;0.65;;;;;;;17.78;71.53;101283.44;5027487;28;20491;-66
2023/06/07 02:05:56;;;;;;;0.93;0.70;;;;;;;17.77;71.91;101281.84;5028225;28;20053;-68
2023/06/07 02:08:29;;;;;;;4.15;1.17;;;;;;;17.76;71.64;101280.31;5023385;28;20034;-67
2023/06/07 02:10:56;;;;;;;1.10;0.90;;;;;;;17.64;72.16;101280.69;5012851;28;20440;-67
2023/06/07 02:13:25;;;;;;;2.05;0.75;;;;;;;17.61;72.13;101280.69;5029573;28;20066;-66
2023/06/07 02:15:50;;;;;;;1.25;0.70;;;;;;;17.51;72.43;101289.59;5021860;28;20048;-67
2023/06/07 02:18:19;;;;;;;1.33;0.60;;;;;;;17.44;72.80;101286.84;5024858;28;20069;-67
2023/06/07 02:20:45;;;;;;;7.97;0.90;;;;;;;17.39;72.97;101287.97;5029343;28;20025;-68
2023/06/07 02:23:13;;;;;;;1.40;0.90;;;;;;;17.45;72.84;101285.66;5017753;28;20029;-67
2023/06/07 02:25:38;;;;;;;3.55;1.05;;;;;;;17.42;73.01;101283.72;5025763;28;20030;-67
2023/06/07 02:28:04;;;;;;;5.05;1.15;;;;;;;17.38;72.34;101278.25;5022252;28;20041;-67
2023/06/07 02:30:30;;;;;;;1.67;0.77;;;;;;;17.30;73.79;101282.13;5023505;28;20034;-66
2023/06/07 02:32:55;;;;;;;0.85;0.70;;;;;;;17.39;73.24;101271.63;5025679;28;20047;-67
2023/06/07 02:35:22;;;;;;;1.35;0.70;;;;;;;17.33;73.02;101275.13;5019925;28;20037;-68
2023/06/07 02:37:47;;;;;;;2.08;0.50;;;;;;;17.36;73.01;101280.59;5024018;28;20108;-68
2023/06/07 02:40:14;;;;;;;0.80;0.60;;;;;;;17.30;73.29;101275.91;5005059;28;20030;-67
2023/06/07 02:42:46;;;;;;;1.95;1.00;;;;;;;17.13;73.35;101280.88;5021217;28;20119;-68
2023/06/07 02:45:16;;;;;;;1.63;0.77;;;;;;;17.03;74.14;101273.47;5029199;28;20552;-67
2023/06/07 02:47:44;;;;;;;2.22;1.08;;;;;;;17.04;74.42;101275.03;5017106;28;20038;-68
2023/06/07 02:50:10;;;;;;;1.35;0.80;;;;;;;17.01;74.18;101275.03;5028230;28;20036;-66
2023/06/07 02:52:37;;;;;;;2.20;1.08;;;;;;;17.04;74.46;101277.75;5023715;28;20674;-65
2023/06/07 02:55:05;;;;;;;1.55;0.90;;;;;;;17.04;74.36;101274.25;5021497;28;20029;-65
2023/06/07 02:57:30;;;;;;;1.13;0.63;;;;;;;17.05;74.57;101275.81;5024628;28;20397;-66
2023/06/07 02:59:56;;;;;;;2.63;1.00;;;;;;;17.05;73.96;101279.28;5018299;28;20030;-66
2023/06/07 03:02:26;;;;;;;2.63;0.82;;;;;;;16.96;74.38;101278.88;5026246;28;20037;-67
2023/06/07 03:04:53;;;;;;;1.45;0.50;;;;;;;16.86;75.20;101287.00;5018821;28;20084;-67
2023/06/07 03:07:20;;;;;;;2.05;1.17;;;;;;;16.93;74.65;101279.66;5021349;28;20030;-66
2023/06/07 03:09:47;;;;;;;4.50;1.27;;;;;;;16.90;74.75;101282.34;5018961;28;20021;-67
2023/06/07 03:12:15;;;;;;;1.10;0.70;;;;;;;16.86;74.97;101290.50;5018288;28;20502;-67
2023/06/07 03:14:46;;;;;;;2.03;0.65;;;;;;;16.93;74.83;101278.88;5008455;28;20030;-66
2023/06/07 03:17:14;;;;;;;3.65;1.27;;;;;;;16.93;75.22;101284.31;5017158;28;20449;-66
2023/06/07 03:19:42;;;;;;;0.77;0.77;;;;;;;17.01;74.59;101278.50;5017086;28;20305;-65
2023/06/07 03:22:07;;;;;;;1.48;0.60;;;;;;;17.00;74.70;101284.34;5022399;28;20041;-65
2023/06/07 03:24:36;;;;;;;5.75;2.83;;;;;;;16.96;74.69;101278.09;5021798;28;20096;-67
2023/06/07 03:27:04;;;;;;;1.23;0.73;;;;;;;16.92;75.07;101288.97;5022906;28;20060;-67
2023/06/07 03:29:30;;;;;;;2.00;1.08;;;;;;;16.81;75.33;101288.16;5017107;28;20026;-65
2023/06/07 03:31:56;;;;;;;1.48;0.82;;;;;;;16.71;76.21;101283.41;5012358;28;20406;-66
2023/06/07 03:34:22;;;;;;;1.05;0.70;;;;;;;16.67;76.42;101284.56;5019916;28;20025;-66
2023/06/07 03:36:48;;;;;;;1.02;0.77;;;;;;;16.49;77.06;101281.72;5027290;28;20031;-67
2023/06/07 03:39:16;;;;;;;2.05;0.80;;;;;;;16.43;77.20;101285.16;5013561;28;20662;-66
2023/06/07 03:41:41;;;;;;;1.55;1.10;;;;;;;16.47;77.08;101286.75;5021767;28;20022;-67
2023/06/07 03:44:08;;;;;;;2.22;0.73;;;;;;;16.32;78.09;101282.34;5019205;28;20041;-66
2023/06/07 03:46:37;;;;;;;2.65;1.27;;;;;;;16.34;78.20;101290.16;5016673;28;20124;-66
2023/06/07 03:49:02;;;;;;;1.25;1.15;;;;;;;16.48;77.60;101287.50;5014164;28;20112;-66
2023/06/07 03:51:32;;;;;;;1.58;0.80;;;;;;;16.45;78.07;101280.13;5026044;28;20021;-64
2023/06/07 03:54:00;;;;;;;;;;;;;;;16.67;77.17;101290.00;5010477;28;20434;-66
2023/06/07 03:56:26;;;;;;;2.45;1.10;;;;;;;16.57;77.55;101288.78;5014702;28;19925;-66
2023/06/07 03:58:53;;;;;;;1.42;0.88;;;;;;;16.58;77.54;101284.91;5020524;28;20029;-65
2023/06/07 04:01:25;;;;;;;2.17;1.30;;;;;;;16.34;78.28;101279.28;5019270;28;20037;-66
2023/06/07 04:03:53;;;;;;;2.20;0.95;;;;;;;16.33;79.06;101288.59;5020410;28;20034;-62
2023/06/07 04:06:24;;;;;;;1.15;0.65;;;;;;;16.32;79.05;101284.31;5028860;28;20029;-65
2023/06/07 04:08:51;;;;;;;2.42;0.88;;;;;;;16.40;78.98;101283.19;5011863;28;20500;-66
2023/06/07 04:11:18;;;;;;;1.48;0.93;;;;;;;16.55;78.30;101288.38;5016264;28;20037;-66
2023/06/07 04:13:46;;;;;;;5.28;0.93;;;;;;;16.59;78.52;101283.72;5020179;28;20117;-66
2023/06/07 04:16:12;;;;;;;1.15;0.60;;;;;;;16.66;77.92;101283.00;5019836;28;20514;-64
2023/06/07 04:18:44;;;;;;;2.22;0.82;;;;;;;16.62;78.44;101287.66;5018435;28;20052;-66
2023/06/07 04:21:12;;;;;;;15.63;1.38;;;;;;;16.54;79.19;101283.31;5023962;28;20029;-66
2023/06/07 04:23:41;;;;;;;1.15;0.75;;;;;;;16.64;78.89;101288.84;5012853;28;20030;-66
2023/06/07 04:26:08;;;;;;;4.10;1.00;;;;;;;16.73;78.51;101285.75;5024838;28;20033;-65
2023/06/07 04:28:34;;;;;;;6.38;1.60;;;;;;;16.76;78.35;101280.31;5026950;28;20025;-65
2023/06/07 04:31:02;;;;;;;2.22;0.88;;;;;;;16.75;78.26;101278.78;5029730;28;20037;-66
2023/06/07 04:33:32;;;;;;;1.05;0.65;;;;;;;16.76;78.13;101285.00;5028697;28;20029;-66
2023/06/07 04:35:58;;;;;;;2.35;0.93;;;;;;;16.83;77.61;101274.94;5028358;28;20489;-66
2023/06/07 04:38:25;;;;;;;3.00;0.93;;;;;;;16.88;77.86;101280.00;5022848;28;20041;-66
2023/06/07 04:41:13;;;;;;;1.20;0.63;;;;;;;16.90;78.18;101269.53;5030405;28;20029;-66
2023/06/07 04:43:48;;;;;;;3.58;1.23;;;;;;;16.92;78.01;101277.28;5025569;28;20116;-66
2023/06/07 04:46:18;;;;;;;0.80;0.60;;;;;;;16.96;77.92;101287.03;5024864;28;20080;-65
2023/06/07 04:48:44;;;;;;;1.75;0.60;;;;;;;16.95;77.97;101282.78;5025261;28;20046;-66
2023/06/07 04:51:30;;;;;;;1.02;0.80;;;;;;;17.09;77.64;101280.09;5025116;28;20690;-67
2023/06/07 04:53:58;;;;;;;1.48;0.70;;;;;;;17.01;77.64;101277.75;4952416;28;20042;-66
2023/06/07 04:56:26;;;;;;;0.70;0.30;;;;;;;17.25;77.19;101287.94;4951194;28;20035;-66
2023/06/07 04:58:53;;;;;;;0.90;0.50;;;;;;;17.19;77.21;101284.03;4946153;28;20043;-67
2023/06/07 05:01:19;;;;;;;0.85;0.57;;;;;;;17.27;76.95;101277.44;4972829;28;20030;-66
2023/06/07 05:03:44;;;;;;;0.70;0.55;;;;;;;17.29;76.87;101280.56;4971085;28;20042;-66
2023/06/07 05:06:18;;;;;;;0.80;0.80;;;;;;;17.44;77.10;101284.13;4950710;28;20061;-66
2023/06/07 05:08:46;;;;;;;4.60;0.63;;;;;;;17.50;76.53;101280.63;4966033;28;20042;-66
2023/06/07 05:11:11;;;;;;;2.85;1.05;;;;;;;17.63;76.88;101289.25;4965470;28;20138;-66
2023/06/07 05:13:37;;;;;;;1.25;0.65;;;;;;;18.03;75.90;101295.13;4951110;28;20535;-66
2023/06/07 05:16:03;;;;;;;2.53;1.38;;;;;;;18.65;74.20;101308.34;4926772;28;20039;-66
2023/06/07 05:18:30;;;;;;;1.27;1.05;;;;;;;19.21;71.42;101299.97;4967951;28;20066;-67
2023/06/07 05:20:57;;;;;;;2.35;0.70;;;;;;;19.59;68.34;101304.47;4949498;28;20110;-66
2023/06/07 05:23:22;;;;;;;1.55;0.65;;;;;;;20.05;66.79;101309.63;4948690;28;20206;-67
2023/06/07 05:25:51;;;;;;;1.00;0.70;;;;;;;20.32;64.98;101320.78;4969478;28;20062;-64
2023/06/07 05:28:17;;;;;;;6.40;1.02;;;;;;;20.50;62.92;101321.38;4951474;28;20058;-67
2023/06/07 05:30:48;;;;;;;5.45;1.20;;;;;;;20.75;63.07;101318.41;4983402;28;20041;-66
2023/06/07 05:33:14;;;;;;;1.50;0.50;;;;;;;21.02;62.07;101324.78;5024522;28;20128;-63
2023/06/07 05:35:44;;;;;;;2.85;0.73;;;;;;;21.02;61.90;101316.56;5006001;28;20112;-66
2023/06/07 05:38:10;;;;;;;2.83;1.08;;;;;;;21.16;62.20;101317.16;5021685;28;20054;-65
2023/06/07 05:40:36;;;;;;;0.93;0.70;;;;;;;21.37;61.22;101314.13;5016870;28;20034;-64
2023/06/07 05:43:01;;;;;;;1.58;0.70;;;;;;;21.53;60.13;101314.31;5021999;28;20460;-68
2023/06/07 05:45:27;;;;;;;2.03;1.02;;;;;;;21.76;58.78;101318.28;5016059;28;20613;-68
2023/06/07 05:47:52;;;;;;;1.95;0.73;;;;;;;21.90;59.67;101318.91;5025441;28;20033;-68
2023/06/07 05:50:20;;;;;;;2.40;0.65;;;;;;;22.11;58.22;101323.25;5027959;28;20033;-68
2023/06/07 05:52:52;;;;;;;1.55;0.68;;;;;;;22.14;56.78;101316.97;5024373;28;20033;-68
2023/06/07 05:55:17;;;;;;;0.32;0.32;;;;;;;22.27;57.12;101318.69;5020517;28;20025;-68
2023/06/07 05:57:43;;;;;;;3.40;1.08;;;;;;;22.25;56.72;101312.06;5025482;28;20035;-67
2023/06/07 06:00:11;;;;;;;4.00;0.85;;;;;;;22.45;56.06;101319.13;5020976;28;20371;-69
2023/06/07 06:02:37;;;;;;;1.13;0.70;;;;;;;22.51;56.66;101322.19;5016234;28;20424;-67
2023/06/07 06:05:06;;;;;;;4.68;0.80;;;;;;;22.64;55.29;101319.63;5014458;28;20030;-69
2023/06/07 06:07:52;;;;;;;1.65;0.68;;;;;;;22.61;56.42;101328.72;5021236;28;20033;-69
2023/06/07 06:10:18;;;;;;;1.50;0.60;;;;;;;22.68;56.47;101326.63;4967461;28;20042;-68
2023/06/07 06:12:43;;;;;;;2.22;1.75;;;;;;;22.27;55.02;101332.41;4969061;28;20550;-67
2023/06/07 06:15:10;;;;;;;4.35;0.80;;;;;;;21.63;57.19;101328.28;4966425;28;20038;-69
2023/06/07 06:17:35;;;;;;;5.53;1.17;;;;;;;21.98;57.30;101333.28;4967101;28;20120;-68
2023/06/07 06:20:02;;;;;;;1.17;0.52;;;;;;;22.30;57.04;101333.53;4966481;28;20074;-68
2023/06/07 06:22:28;;;;;;;3.03;0.82;;;;;;;22.48;56.14;101342.25;4967394;28;20047;-68
2023/06/07 06:24:53;;;;;;;2.28;0.70;;;;;;;22.79;54.73;101338.19;4966146;28;20643;-66
2023/06/07 06:27:20;;;;;;;1.77;0.68;;;;;;;22.74;54.86;101337.91;4967790;28;20070;-69
2023/06/07 06:29:46;;;;;;;4.90;0.75;;;;;;;22.73;55.84;101337.13;4969151;28;20042;-68
2023/06/07 06:32:11;;;;;;;0.93;0.85;;;;;;;22.95;55.98;101341.03;4969358;28;20034;-67
2023/06/07 06:34:37;;;;;;;0.88;0.63;;;;;;;23.00;55.82;101335.03;4966864;28;20042;-69
2023/06/07 06:37:04;;;;;;;1.20;0.68;;;;;;;23.10;54.63;101347.78;4965874;28;20054;-67
2023/06/07 06:39:30;;;;;;;2.03;0.73;;;;;;;23.00;53.92;101350.72;4966835;28;20026;-66
2023/06/07 06:41:55;;;;;;;2.47;0.73;;;;;;;23.10;54.61;101347.78;4964036;28;20105;-68
2023/06/07 06:44:35;;;;;;;1.83;0.88;;;;;;;22.64;54.11;101341.59;4967409;28;20035;-68
2023/06/07 06:47:00;;;;;;;1.50;0.52;;;;;;;22.83;55.30;101349.88;4991256;28;20049;-66
2023/06/07 06:49:27;;;;;;;6.00;1.05;;;;;;;23.14;54.63;101356.75;5023954;28;20100;-68
2023/06/07 06:51:52;;;;;;;2.17;0.60;;;;;;;23.37;54.31;101350.41;5022086;28;20057;-67
2023/06/07 06:54:18;;;;;;;2.30;0.80;;;;;;;23.57;54.75;101348.41;5027281;28;20061;-69
2023/06/07 06:56:43;;;;;;;3.33;0.85;;;;;;;23.64;53.48;101353.75;5023872;28;20087;-68
2023/06/07 06:59:09;;;;;;;1.98;0.77;;;;;;;23.84;53.21;101353.69;5025693;28;20052;-69
2023/06/07 07:01:48;;;;;;;2.53;0.60;;;;;;;24.01;53.13;101347.00;5018908;28;20038;-67
2023/06/07 07:04:14;;;;;;;1.40;0.70;;;;;;;24.07;52.70;101348.06;5024753;28;20390;-69
2023/06/07 07:06:41;;;;;;;0.63;0.40;;;;;;;24.21;52.55;101356.00;5021802;28;20044;-67
2023/06/07 07:09:07;;;;;;;2.22;0.73;;;;;;;24.35;52.17;101347.34;5030043;28;20499;-69
2023/06/07 07:11:33;;;;;;;0.82;0.50;;;;;;;24.43;52.38;101347.97;5023777;28;20545;-68
2023/06/07 07:13:58;;;;;;;4.05;0.40;;;;;;;24.58;51.37;101336.16;5021270;28;20473;-69
2023/06/07 07:16:24;;;;;;;2.17;0.63;;;;;;;24.49;50.43;101344.25;5016570;28;20113;-69
2023/06/07 07:18:50;;;;;;;3.63;0.95;;;;;;;24.67;50.72;101346.53;5022095;28;20113;-68
2023/06/07 07:21:15;;;;;;;1.35;0.52;;;;;;;24.68;50.57;101340.59;5025978;28;20418;-67
2023/06/07 07:23:40;;;;;;;0.60;0.50;;;;;;;24.78;49.86;101336.81;5031795;28;20120;-68
2023/06/07 07:26:06;;;;;;;1.08;0.50;;;;;;;24.82;49.18;101344.97;5027888;28;20045;-69
2023/06/07 07:28:31;;;;;;;4.05;0.95;;;;;;;24.89;49.08;101340.03;5027777;28;20076;-69
2023/06/07 07:30:57;;;;;;;1.60;0.68;;;;;;;25.04;49.40;101346.72;5022080;28;20544;-68
2023/06/07 07:33:22;;;;;;;0.98;0.50;;;;;;;25.12;49.83;101349.28;5031364;28;20035;-69
2023/06/07 07:35:48;;;;;;;1.23;0.85;;;;;;;25.18;49.58;101353.81;5028160;28;20024;-68
2023/06/07 07:38:15;;;;;;;1.27;0.73;;;;;;;25.50;48.59;101358.44;5029748;28;20029;-68
2023/06/07 07:40:44;;;;;;;1.60;1.02;;;;;;;25.53;48.38;101358.31;5025546;28;20048;-67
2023/06/07 07:43:10;;;;;;;2.40;1.05;;;;;;;25.65;47.39;101359.53;5024454;28;20026;-69
2023/06/07 07:45:36;;;;;;;2.33;0.80;;;;;;;25.86;47.47;101351.38;5025780;28;20403;-68
2023/06/07 07:48:02;;;;;;;1.10;0.50;;;;;;;25.72;48.15;101354.59;5023839;28;20037;-68
2023/06/07 07:50:28;;;;;;;4.03;0.60;;;;;;;25.91;47.66;101350.84;5023171;28;20021;-69
2023/06/07 07:52:54;;;;;;;2.75;0.47;;;;;;;25.90;47.64;101360.31;5024617;28;20042;-69
2023/06/07 07:55:40;;;;;;;2.97;0.82;;;;;;;26.00;48.05;101354.94;5025632;28;20117;-69
2023/06/07 07:58:07;;;;;;;0.50;0.38;;;;;;;26.11;47.81;101364.44;4983190;28;20558;-68
2023/06/07 08:00:32;;;;;;;0.98;0.68;;;;;;;26.16;47.67;101358.34;4966615;28;20054;-69
2023/06/07 08:02:58;;;;;;;1.20;0.52;;;;;;;26.28;47.13;101351.25;4985661;28;20305;-69
2023/06/07 08:05:23;;;;;;;0.47;0.40;;;;;;;26.35;47.38;101362.84;4988372;28;20070;-68
2023/06/07 08:07:49;;;;;;;3.25;0.73;;;;;;;26.55;46.83;101362.56;4987027;28;20030;-66
2023/06/07 08:10:14;;;;;;;5.22;0.80;;;;;;;26.47;46.81;101358.50;4989316;28;20052;-69
2023/06/07 08:12:40;;;;;;;2.55;0.88;;;;;;;26.84;45.49;101356.84;4989225;28;20038;-67
2023/06/07 08:15:05;;;;;;;0.88;0.60;;;;;;;26.92;45.72;101364.47;4989462;28;20434;-67
2023/06/07 08:17:33;;;;;;;2.28;0.70;;;;;;;26.69;46.00;101362.09;4988909;28;20048;-69
2023/06/07 08:19:58;;;;;;;0.95;0.65;;;;;;;26.82;45.97;101364.81;4968258;28;20043;-69
2023/06/07 08:22:24;;;;;;;2.70;0.70;;;;;;;26.78;45.42;101351.13;4988408;28;20042;-69
2023/06/07 08:24:50;;;;;;;2.58;0.70;;;;;;;26.97;44.86;101358.34;4988591;28;20034;-68
2023/06/07 08:27:15;;;;;;;0.50;0.40;;;;;;;27.01;45.13;101355.44;4987584;28;20043;-69
2023/06/07 08:29:41;;;;;;;1.55;0.70;;;;;;;27.01;44.96;101360.97;4990323;28;20038;-69
2023/06/07 08:32:07;;;;;;;0.85;0.60;;;;;;;27.18;44.32;101349.25;4989106;28;20640;-67
2023/06/07 08:34:32;;;;;;;1.10;0.57;;;;;;;27.10;44.24;101359.03;4988185;28;20060;-70
2023/06/07 08:37:04;;;;;;;1.63;0.65;;;;;;;27.22;44.20;101363.72;5028787;28;20033;-68
2023/06/07 08:39:29;;;;;;;0.65;0.50;;;;;;;27.30;44.28;101361.47;5027393;28;20120;-69
2023/06/07 08:41:55;;;;;;;3.13;0.93;;;;;;;27.45;43.73;101363.28;5021949;28;20565;-68
2023/06/07 08:44:23;;;;;;;0.95;0.57;;;;;;;27.72;43.84;101368.19;5021871;28;20049;-69
2023/06/07 08:46:51;;;;;;;0.80;0.55;;;;;;;27.76;43.77;101368.06;5030335;28;20458;-68
2023/06/07 08:49:17;;;;;;;1.75;0.45;;;;;;;27.89;42.54;101368.72;5029615;28;20040;-68
2023/06/07 08:51:43;;;;;;;1.00;0.52;;;;;;;27.99;42.86;101364.78;5022343;28;20033;-67
2023/06/07 08:54:13;;;;;;;2.17;1.13;;;;;;;28.14;41.78;101371.28;5028980;28;20037;-68
2023/06/07 08:56:40;;;;;;;0.63;0.50;;;;;;;28.19;43.02;101367.91;5027896;28;20457;-68
2023/06/07 08:59:06;;;;;;;0.77;0.52;;;;;;;28.20;42.30;101370.22;5026577;28;20037;-68
2023/06/07 09:01:35;;;;;;;0.73;0.45;;;;;;;28.33;41.93;101375.66;5017768;28;20060;-68
2023/06/07 09:04:00;;;;;;;1.00;0.70;;;;;;;28.61;42.05;101365.41;5022386;28;20033;-69
2023/06/07 09:06:26;;;;;;;1.77;0.82;;;;;;;28.77;41.92;101374.19;5019755;28;20384;-69
2023/06/07 09:08:52;;;;;;;0.60;0.45;;;;;;;28.77;41.81;101363.06;5025932;28;20059;-69
2023/06/07 09:11:18;;;;;;;0.82;0.60;;;;;;;28.72;41.05;101365.69;5023516;28;20040;-69
2023/06/07 09:13:44;;;;;;;1.25;0.60;;;;;;;28.73;41.75;101359.69;5021325;28;20038;-68
2023/06/07 09:16:11;;;;;;;1.30;0.63;;;;;;;28.81;41.38;101363.69;5025292;28;20053;-66
2023/06/07 09:18:53;;;;;;;2.17;0.70;;;;;;;28.88;41.06;101368.16;5022085;28;20048;-68
2023/06/07 09:21:22;;;;;;;0.50;0.50;;;;;;;28.91;40.92;101358.91;5019877;28;20059;-68
2023/06/07 09:23:48;;;;;;;0.55;0.50;;;;;;;29.07;41.08;101364.16;5029331;28;20022;-68
2023/06/07 09:26:15;;;;;;;0.77;0.65;;;;;;;28.98;40.32;101356.59;5022187;28;20036;-67
2023/06/07 09:28:41;;;;;;;0.73;0.60;;;;;;;29.17;40.14;101371.25;5023812;28;20056;-68
2023/06/07 09:31:28;;;;;;;0.63;0.60;;;;;;;29.31;40.34;101363.03;5025204;28;20030;-67
2023/06/07 09:33:54;;;;;;;1.45;0.80;;;;;;;29.36;40.12;101356.09;4984756;28;20553;-66
2023/06/07 09:36:20;;;;;;;4.15;0.90;;;;;;;29.45;40.19;101355.28;4986903;28;20046;-67
2023/06/07 09:38:45;;;;;;;0.65;0.45;;;;;;;29.65;39.67;101350.75;4988182;28;20050;-66
2023/06/07 09:41:12;;;;;;;0.93;0.60;;;;;;;29.61;39.61;101358.47;4992968;28;20030;-68
2023/06/07 09:43:54;;;;;;;1.27;0.57;;;;;;;29.86;39.17;101369.22;4993531;28;20550;-68
2023/06/07 09:46:20;;;;;;;1.05;0.68;;;;;;;29.92;38.81;101361.78;4989323;28;20177;-68
2023/06/07 09:48:54;;;;;;;1.50;0.80;;;;;;;29.98;38.54;101362.66;4990827;28;20059;-68
2023/06/07 09:51:21;;;;;;;1.10;0.50;;;;;;;30.14;38.58;101353.13;4985585;28;20054;-68
2023/06/07 09:53:56;;;;;;;0.82;0.63;;;;;;;30.23;38.82;101355.88;4989742;28;20046;-68
2023/06/07 09:56:23;;;;;;;0.73;0.50;;;;;;;30.30;38.58;101357.53;4981396;28;20042;-68
2023/06/07 09:59:24;;;;;;;0.73;0.47;;;;;;;30.46;38.03;101357.13;4981450;28;20596;-68
2023/06/07 10:01:51;;;;;;;;;;;;;;;30.39;37.65;101355.47;4970351;28;20114;-68
2023/06/07 10:04:17;;;;;;;1.05;0.57;;;;;;;30.66;37.98;101354.50;4983434;28;19917;-68
2023/06/07 10:06:44;;;;;;;1.60;0.63;;;;;;;30.68;37.99;101355.56;4989198;28;20044;-68
2023/06/07 10:09:10;;;;;;;1.08;0.77;;;;;;;30.85;37.98;101367.84;4989156;28;20077;-67
2023/06/07 10:11:37;;;;;;;0.80;0.50;;;;;;;30.86;37.55;101360.22;5010623;28;20123;-67
2023/06/07 10:14:11;;;;;;;2.55;0.70;;;;;;;30.92;37.71;101358.31;5021914;28;20033;-66
2023/06/07 10:16:42;;;;;;;0.65;0.65;;;;;;;30.91;37.34;101351.22;5020043;28;20565;-68
2023/06/07 10:19:17;;;;;;;1.33;0.90;;;;;;;31.17;37.33;101360.53;5027907;28;20478;-64
2023/06/07 10:22:04;;;;;;;0.75;0.60;;;;;;;30.91;35.94;101346.41;5019736;28;20038;-68
2023/06/07 10:24:35;;;;;;;1.63;0.80;;;;;;;31.13;37.17;101350.88;4964535;28;20055;-67
2023/06/07 10:27:08;;;;;;;1.25;0.75;;;;;;;31.17;37.93;101349.41;4966327;28;20051;-67
2023/06/07 10:29:40;;;;;;;1.63;0.73;;;;;;;31.26;37.50;101351.34;4970081;28;20049;-67
2023/06/07 10:32:12;;;;;;;1.40;0.47;;;;;;;31.58;37.11;101345.56;4967448;28;20186;-68
2023/06/07 10:34:39;;;;;;;1.08;0.70;;;;;;;31.73;37.00;101346.31;4969629;28;20042;-67
2023/06/07 10:37:08;;;;;;;3.25;0.70;;;;;;;31.87;36.73;101348.28;4970359;28;20088;-67
2023/06/07 10:39:35;;;;;;;1.80;0.60;;;;;;;31.01;36.96;101339.50;4965600;28;20091;-66
2023/06/07 10:42:01;;;;;;;2.10;0.80;;;;;;;30.95;37.11;101341.44;4961597;28;20126;-68
2023/06/07 10:44:29;;;;;;;5.25;1.23;;;;;;;31.64;37.62;101340.84;4964682;28;20111;-68
2023/06/07 10:47:22;;;;;;;1.23;0.80;;;;;;;31.67;37.01;101334.31;4965944;28;20034;-68
2023/06/07 10:50:08;;;;;;;0.50;0.50;;;;;;;31.83;36.96;101333.78;4967629;28;20046;-68
2023/06/07 10:52:54;;;;;;;2.33;0.77;;;;;;;31.84;36.79;101335.31;4931148;29;20107;-68
2023/06/07 10:55:27;;;;;;;0.85;0.60;;;;;;;32.11;36.27;101333.44;4926020;29;20457;-68
2023/06/07 10:57:53;;;;;;;0.75;0.55;;;;;;;32.15;36.81;101334.78;4927064;29;20044;-68
2023/06/07 11:00:33;;;;;;;2.50;0.90;;;;;;;32.32;36.47;101332.19;4930788;28;20062;-68
2023/06/07 11:03:04;;;;;;;3.67;0.77;;;;;;;32.45;36.74;101327.03;4961948;28;20133;-68
2023/06/07 11:05:57;;;;;;;1.20;0.70;;;;;;;32.69;36.61;101327.56;4963939;28;20070;-68
2023/06/07 11:08:27;;;;;;;3.10;0.93;;;;;;;32.72;35.68;101327.34;4923738;28;20045;-68
2023/06/07 11:10:58;;;;;;;0.77;0.70;;;;;;;32.62;35.25;101325.97;4957069;28;20408;-67
2023/06/07 11:13:25;;;;;;;;;;;;;;;32.53;35.52;101314.19;4960616;28;20066;-68
2023/06/07 11:15:50;;;;;;;1.05;0.75;;;;;;;32.75;36.02;101311.66;4949042;28;19913;-68
2023/06/07 11:18:16;;;;;;;1.73;1.20;;;;;;;32.86;35.26;101320.13;4969243;28;20444;-67
2023/06/07 11:20:44;;;;;;;1.75;0.88;;;;;;;33.14;35.34;101329.53;4956458;28;20030;-67
2023/06/07 11:23:29;;;;;;;2.72;1.00;;;;;;;32.66;35.32;101329.31;4958311;28;20051;-67
2023/06/07 11:25:59;;;;;;;4.07;1.05;;;;;;;32.19;34.99;101321.34;4965865;28;20035;-66
2023/06/07 11:28:30;;;;;;;0.65;0.65;;;;;;;32.21;35.77;101313.25;4958621;28;20660;-68
2023/06/07 11:30:56;;;;;;;0.90;0.70;;;;;;;32.27;35.77;101307.78;5022717;28;20041;-66
2023/06/07 11:33:21;;;;;;;1.75;0.88;;;;;;;32.63;35.67;101305.19;5020367;28;20029;-66